sensor_id;sensor_type;location;lat;lon;timestamp;temperature;humidity
80560;DHT22;70065;42.700;23.316;2023-08-17T00:00:34;28.70;36.40
80560;DHT22;70065;42.700;23.316;2023-08-17T00:03:00;28.60;36.40
80560;DHT22;70065;42.700;23.316;2023-08-17T00:05:27;28.60;36.40
80560;DHT22;70065;42.700;23.316;2023-08-17T00:07:53;28.60;36.40
80560;DHT22;70065;42.700;23.316;2023-08-17T00:10:19;28.60;36.50
80560;DHT22;70065;42.700;23.316;2023-08-17T00:12:45;28.60;36.50
80560;DHT22;70065;42.700;23.316;2023-08-17T00:15:12;28.60;36.50
80560;DHT22;70065;42.700;23.316;2023-08-17T00:17:38;28.60;36.50
80560;DHT22;70065;42.700;23.316;2023-08-17T00:20:04;28.60;36.50
80560;DHT22;70065;42.700;23.316;2023-08-17T00:22:30;28.60;36.50
80560;DHT22;70065;42.700;23.316;2023-08-17T00:24:56;28.60;36.50
80560;DHT22;70065;42.700;23.316;2023-08-17T00:27:22;28.60;36.60
80560;DHT22;70065;42.700;23.316;2023-08-17T00:29:48;28.60;36.50
80560;DHT22;70065;42.700;23.316;2023-08-17T00:32:13;28.60;36.50
80560;DHT22;70065;42.700;23.316;2023-08-17T00:34:39;28.60;36.50
80560;DHT22;70065;42.700;23.316;2023-08-17T00:37:05;28.50;36.50
80560;DHT22;70065;42.700;23.316;2023-08-17T00:39:30;28.60;36.60
80560;DHT22;70065;42.700;23.316;2023-08-17T00:41:56;28.50;36.50
80560;DHT22;70065;42.700;23.316;2023-08-17T00:44:22;28.50;36.50
80560;DHT22;70065;42.700;23.316;2023-08-17T00:46:48;28.50;36.60
80560;DHT22;70065;42.700;23.316;2023-08-17T00:49:13;28.50;36.50
80560;DHT22;70065;42.700;23.316;2023-08-17T00:51:39;28.50;36.30
80560;DHT22;70065;42.700;23.316;2023-08-17T00:54:05;28.50;36.60
80560;DHT22;70065;42.700;23.316;2023-08-17T00:56:31;28.50;36.60
80560;DHT22;70065;42.700;23.316;2023-08-17T00:58:57;28.50;36.60
80560;DHT22;70065;42.700;23.316;2023-08-17T01:01:24;28.50;36.70
80560;DHT22;70065;42.700;23.316;2023-08-17T01:03:49;28.50;36.60
80560;DHT22;70065;42.700;23.316;2023-08-17T01:06:15;28.50;36.60
80560;DHT22;70065;42.700;23.316;2023-08-17T01:08:42;28.50;36.60
80560;DHT22;70065;42.700;23.316;2023-08-17T01:11:34;28.50;36.60
80560;DHT22;70065;42.700;23.316;2023-08-17T01:14:18;28.50;36.50
80560;DHT22;70065;42.700;23.316;2023-08-17T01:16:57;28.50;36.60
80560;DHT22;70065;42.700;23.316;2023-08-17T01:19:27;28.50;36.60
80560;DHT22;70065;42.700;23.316;2023-08-17T01:22:00;28.50;36.70
80560;DHT22;70065;42.700;23.316;2023-08-17T01:24:26;28.50;36.60
80560;DHT22;70065;42.700;23.316;2023-08-17T01:26:52;28.50;36.60
80560;DHT22;70065;42.700;23.316;2023-08-17T01:29:18;28.50;36.70
80560;DHT22;70065;42.700;23.316;2023-08-17T01:34:29;28.50;36.70
80560;DHT22;70065;42.700;23.316;2023-08-17T01:37:00;28.50;36.70
80560;DHT22;70065;42.700;23.316;2023-08-17T01:39:34;28.50;36.70
80560;DHT22;70065;42.700;23.316;2023-08-17T01:42:02;28.40;36.60
80560;DHT22;70065;42.700;23.316;2023-08-17T01:44:29;28.50;36.70
80560;DHT22;70065;42.700;23.316;2023-08-17T01:46:55;28.40;36.70
80560;DHT22;70065;42.700;23.316;2023-08-17T01:49:20;28.50;36.70
80560;DHT22;70065;42.700;23.316;2023-08-17T01:51:46;28.50;36.70
80560;DHT22;70065;42.700;23.316;2023-08-17T01:54:12;28.40;36.70
80560;DHT22;70065;42.700;23.316;2023-08-17T01:56:37;28.40;36.70
80560;DHT22;70065;42.700;23.316;2023-08-17T01:59:03;28.50;36.70
80560;DHT22;70065;42.700;23.316;2023-08-17T02:01:30;28.40;36.70
80560;DHT22;70065;42.700;23.316;2023-08-17T02:03:56;28.40;36.70
80560;DHT22;70065;42.700;23.316;2023-08-17T02:06:22;28.40;36.70
80560;DHT22;70065;42.700;23.316;2023-08-17T02:08:48;28.40;36.70
80560;DHT22;70065;42.700;23.316;2023-08-17T02:11:14;28.40;36.70
80560;DHT22;70065;42.700;23.316;2023-08-17T02:13:40;28.40;36.70
80560;DHT22;70065;42.700;23.316;2023-08-17T02:16:05;28.40;36.70
80560;DHT22;70065;42.700;23.316;2023-08-17T02:18:31;28.40;36.80
80560;DHT22;70065;42.700;23.316;2023-08-17T02:20:59;28.40;36.80
80560;DHT22;70065;42.700;23.316;2023-08-17T02:23:24;28.40;36.80
80560;DHT22;70065;42.700;23.316;2023-08-17T02:25:50;28.40;36.80
80560;DHT22;70065;42.700;23.316;2023-08-17T02:28:16;28.40;37.80
80560;DHT22;70065;42.700;23.316;2023-08-17T02:30:43;28.40;36.80
80560;DHT22;70065;42.700;23.316;2023-08-17T02:33:08;28.40;36.80
80560;DHT22;70065;42.700;23.316;2023-08-17T02:35:34;28.30;36.70
80560;DHT22;70065;42.700;23.316;2023-08-17T02:38:00;28.40;36.80
80560;DHT22;70065;42.700;23.316;2023-08-17T02:40:26;28.40;36.80
80560;DHT22;70065;42.700;23.316;2023-08-17T02:42:51;28.30;36.70
80560;DHT22;70065;42.700;23.316;2023-08-17T02:45:17;28.30;36.80
80560;DHT22;70065;42.700;23.316;2023-08-17T02:47:43;28.30;36.80
80560;DHT22;70065;42.700;23.316;2023-08-17T02:50:09;28.30;36.80
80560;DHT22;70065;42.700;23.316;2023-08-17T02:52:35;28.30;36.80
80560;DHT22;70065;42.700;23.316;2023-08-17T02:55:02;28.30;36.80
80560;DHT22;70065;42.700;23.316;2023-08-17T02:57:27;28.30;36.80
80560;DHT22;70065;42.700;23.316;2023-08-17T02:59:53;28.30;36.80
80560;DHT22;70065;42.700;23.316;2023-08-17T03:02:19;28.30;36.80
80560;DHT22;70065;42.700;23.316;2023-08-17T03:04:44;28.30;36.80
80560;DHT22;70065;42.700;23.316;2023-08-17T03:07:10;28.30;36.90
80560;DHT22;70065;42.700;23.316;2023-08-17T03:09:36;28.30;36.90
80560;DHT22;70065;42.700;23.316;2023-08-17T03:12:01;28.30;37.00
80560;DHT22;70065;42.700;23.316;2023-08-17T03:14:27;28.30;36.70
80560;DHT22;70065;42.700;23.316;2023-08-17T03:16:53;28.30;37.00
80560;DHT22;70065;42.700;23.316;2023-08-17T03:19:19;28.30;37.00
80560;DHT22;70065;42.700;23.316;2023-08-17T03:21:47;28.30;37.00
80560;DHT22;70065;42.700;23.316;2023-08-17T03:24:14;28.30;37.00
80560;DHT22;70065;42.700;23.316;2023-08-17T03:26:39;28.30;37.00
80560;DHT22;70065;42.700;23.316;2023-08-17T03:29:05;28.30;37.00
80560;DHT22;70065;42.700;23.316;2023-08-17T03:31:31;28.30;37.00
80560;DHT22;70065;42.700;23.316;2023-08-17T03:33:57;28.30;37.00
80560;DHT22;70065;42.700;23.316;2023-08-17T03:36:23;28.30;37.00
80560;DHT22;70065;42.700;23.316;2023-08-17T03:38:50;28.30;37.00
80560;DHT22;70065;42.700;23.316;2023-08-17T03:41:15;28.30;37.00
80560;DHT22;70065;42.700;23.316;2023-08-17T03:43:41;28.30;36.90
80560;DHT22;70065;42.700;23.316;2023-08-17T03:46:08;28.30;36.90
80560;DHT22;70065;42.700;23.316;2023-08-17T03:48:33;28.30;36.90
80560;DHT22;70065;42.700;23.316;2023-08-17T03:50:59;28.40;36.90
80560;DHT22;70065;42.700;23.316;2023-08-17T03:53:27;28.40;36.80
80560;DHT22;70065;42.700;23.316;2023-08-17T03:55:52;28.50;36.80
80560;DHT22;70065;42.700;23.316;2023-08-17T03:58:18;28.50;36.70
80560;DHT22;70065;42.700;23.316;2023-08-17T04:00:51;28.60;36.70
80560;DHT22;70065;42.700;23.316;2023-08-17T04:03:17;28.80;36.50
80560;DHT22;70065;42.700;23.316;2023-08-17T04:05:43;29.10;36.00
80560;DHT22;70065;42.700;23.316;2023-08-17T04:08:09;29.60;35.30
80560;DHT22;70065;42.700;23.316;2023-08-17T04:10:34;30.20;34.40
80560;DHT22;70065;42.700;23.316;2023-08-17T04:13:00;30.90;33.30
80560;DHT22;70065;42.700;23.316;2023-08-17T04:15:26;31.60;32.30
80560;DHT22;70065;42.700;23.316;2023-08-17T04:17:53;32.30;31.20
80560;DHT22;70065;42.700;23.316;2023-08-17T04:20:18;33.10;30.20
80560;DHT22;70065;42.700;23.316;2023-08-17T04:22:44;33.70;29.50
80560;DHT22;70065;42.700;23.316;2023-08-17T04:25:10;34.40;28.80
80560;DHT22;70065;42.700;23.316;2023-08-17T04:27:36;35.10;28.10
80560;DHT22;70065;42.700;23.316;2023-08-17T04:30:03;35.80;27.40
80560;DHT22;70065;42.700;23.316;2023-08-17T04:32:29;36.40;26.80
80560;DHT22;70065;42.700;23.316;2023-08-17T04:34:55;37.10;26.20
80560;DHT22;70065;42.700;23.316;2023-08-17T04:37:21;37.70;25.60
80560;DHT22;70065;42.700;23.316;2023-08-17T04:39:49;38.30;24.90
80560;DHT22;70065;42.700;23.316;2023-08-17T04:42:16;39.00;24.50
80560;DHT22;70065;42.700;23.316;2023-08-17T04:44:42;39.50;23.90
80560;DHT22;70065;42.700;23.316;2023-08-17T04:47:08;40.10;23.40
80560;DHT22;70065;42.700;23.316;2023-08-17T04:49:33;40.70;23.00
80560;DHT22;70065;42.700;23.316;2023-08-17T04:51:59;41.20;22.50
80560;DHT22;70065;42.700;23.316;2023-08-17T04:54:26;41.70;22.10
80560;DHT22;70065;42.700;23.316;2023-08-17T04:56:52;42.10;21.70
80560;DHT22;70065;42.700;23.316;2023-08-17T04:59:18;42.50;21.30
80560;DHT22;70065;42.700;23.316;2023-08-17T05:01:43;43.00;20.90
80560;DHT22;70065;42.700;23.316;2023-08-17T05:04:11;43.50;20.60
80560;DHT22;70065;42.700;23.316;2023-08-17T05:06:37;43.90;20.30
80560;DHT22;70065;42.700;23.316;2023-08-17T05:09:04;44.20;20.00
80560;DHT22;70065;42.700;23.316;2023-08-17T05:11:30;44.60;19.70
80560;DHT22;70065;42.700;23.316;2023-08-17T05:13:56;44.90;19.50
80560;DHT22;70065;42.700;23.316;2023-08-17T05:16:22;45.20;19.10
80560;DHT22;70065;42.700;23.316;2023-08-17T05:18:48;45.60;19.10
80560;DHT22;70065;42.700;23.316;2023-08-17T05:21:15;45.80;18.80
80560;DHT22;70065;42.700;23.316;2023-08-17T05:23:41;46.20;18.60
80560;DHT22;70065;42.700;23.316;2023-08-17T05:26:07;46.40;18.50
80560;DHT22;70065;42.700;23.316;2023-08-17T05:28:34;46.60;18.20
80560;DHT22;70065;42.700;23.316;2023-08-17T05:31:08;46.90;18.10
80560;DHT22;70065;42.700;23.316;2023-08-17T05:33:34;47.20;18.00
80560;DHT22;70065;42.700;23.316;2023-08-17T05:36:00;47.40;17.80
80560;DHT22;70065;42.700;23.316;2023-08-17T05:38:25;47.50;17.60
80560;DHT22;70065;42.700;23.316;2023-08-17T05:40:58;47.70;17.60
80560;DHT22;70065;42.700;23.316;2023-08-17T05:43:24;47.90;18.30
80560;DHT22;70065;42.700;23.316;2023-08-17T05:45:52;48.00;17.30
80560;DHT22;70065;42.700;23.316;2023-08-17T05:48:21;48.00;17.10
80560;DHT22;70065;42.700;23.316;2023-08-17T05:50:49;48.20;17.10
80560;DHT22;70065;42.700;23.316;2023-08-17T05:53:15;48.20;17.00
80560;DHT22;70065;42.700;23.316;2023-08-17T05:55:40;48.30;16.90
80560;DHT22;70065;42.700;23.316;2023-08-17T05:58:08;48.40;16.90
80560;DHT22;70065;42.700;23.316;2023-08-17T06:00:35;48.40;16.80
80560;DHT22;70065;42.700;23.316;2023-08-17T06:03:01;48.40;16.70
80560;DHT22;70065;42.700;23.316;2023-08-17T06:05:28;48.40;16.70
80560;DHT22;70065;42.700;23.316;2023-08-17T06:07:55;48.40;16.70
80560;DHT22;70065;42.700;23.316;2023-08-17T06:10:29;48.40;16.70
80560;DHT22;70065;42.700;23.316;2023-08-17T06:12:56;48.40;16.70
80560;DHT22;70065;42.700;23.316;2023-08-17T06:15:23;48.30;16.60
80560;DHT22;70065;42.700;23.316;2023-08-17T06:17:49;48.20;16.70
80560;DHT22;70065;42.700;23.316;2023-08-17T06:20:18;48.10;16.70
80560;DHT22;70065;42.700;23.316;2023-08-17T06:22:44;48.10;16.80
80560;DHT22;70065;42.700;23.316;2023-08-17T06:25:10;47.90;16.70
80560;DHT22;70065;42.700;23.316;2023-08-17T06:27:36;47.80;16.80
80560;DHT22;70065;42.700;23.316;2023-08-17T06:30:03;47.70;16.90
80560;DHT22;70065;42.700;23.316;2023-08-17T06:32:33;47.60;17.00
80560;DHT22;70065;42.700;23.316;2023-08-17T06:35:02;47.40;17.00
80560;DHT22;70065;42.700;23.316;2023-08-17T06:37:28;47.20;17.10
80560;DHT22;70065;42.700;23.316;2023-08-17T06:39:54;47.10;17.20
80560;DHT22;70065;42.700;23.316;2023-08-17T06:42:19;46.90;17.30
80560;DHT22;70065;42.700;23.316;2023-08-17T06:44:45;46.80;17.20
80560;DHT22;70065;42.700;23.316;2023-08-17T06:47:11;46.60;17.30
80560;DHT22;70065;42.700;23.316;2023-08-17T06:49:38;46.50;17.30
80560;DHT22;70065;42.700;23.316;2023-08-17T06:52:03;46.50;17.50
80560;DHT22;70065;42.700;23.316;2023-08-17T06:54:34;46.30;17.60
80560;DHT22;70065;42.700;23.316;2023-08-17T06:57:01;46.20;17.60
80560;DHT22;70065;42.700;23.316;2023-08-17T06:59:26;46.10;17.70
80560;DHT22;70065;42.700;23.316;2023-08-17T07:01:53;46.10;17.80
80560;DHT22;70065;42.700;23.316;2023-08-17T07:04:18;46.00;17.80
80560;DHT22;70065;42.700;23.316;2023-08-17T07:06:44;45.90;17.80
80560;DHT22;70065;42.700;23.316;2023-08-17T07:09:10;45.80;17.90
80560;DHT22;70065;42.700;23.316;2023-08-17T07:11:38;45.80;17.90
80560;DHT22;70065;42.700;23.316;2023-08-17T07:14:04;45.70;18.80
80560;DHT22;70065;42.700;23.316;2023-08-17T07:16:33;45.70;18.10
80560;DHT22;70065;42.700;23.316;2023-08-17T07:18:59;45.60;18.10
80560;DHT22;70065;42.700;23.316;2023-08-17T07:21:25;45.60;18.20
80560;DHT22;70065;42.700;23.316;2023-08-17T07:23:53;45.50;18.00
80560;DHT22;70065;42.700;23.316;2023-08-17T07:26:19;45.60;18.20
80560;DHT22;70065;42.700;23.316;2023-08-17T07:28:47;45.60;18.10
80560;DHT22;70065;42.700;23.316;2023-08-17T07:31:13;45.60;19.00
80560;DHT22;70065;42.700;23.316;2023-08-17T07:33:39;45.60;18.30
80560;DHT22;70065;42.700;23.316;2023-08-17T07:36:05;45.60;18.30
80560;DHT22;70065;42.700;23.316;2023-08-17T07:38:31;45.80;18.30
80560;DHT22;70065;42.700;23.316;2023-08-17T07:40:57;45.80;18.10
80560;DHT22;70065;42.700;23.316;2023-08-17T07:43:23;46.00;18.10
80560;DHT22;70065;42.700;23.316;2023-08-17T07:45:54;46.20;17.80
80560;DHT22;70065;42.700;23.316;2023-08-17T07:48:20;46.40;17.80
80560;DHT22;70065;42.700;23.316;2023-08-17T07:50:52;46.70;17.60
80560;DHT22;70065;42.700;23.316;2023-08-17T07:53:19;47.00;17.50
80560;DHT22;70065;42.700;23.316;2023-08-17T07:55:45;47.20;17.20
80560;DHT22;70065;42.700;23.316;2023-08-17T07:58:11;47.60;17.10
80560;DHT22;70065;42.700;23.316;2023-08-17T08:00:37;47.90;16.80
80560;DHT22;70065;42.700;23.316;2023-08-17T08:03:03;48.20;16.50
80560;DHT22;70065;42.700;23.316;2023-08-17T08:05:30;48.50;16.30
80560;DHT22;70065;42.700;23.316;2023-08-17T08:07:56;48.80;16.20
80560;DHT22;70065;42.700;23.316;2023-08-17T08:10:22;49.10;16.00
80560;DHT22;70065;42.700;23.316;2023-08-17T08:12:47;49.30;15.90
80560;DHT22;70065;42.700;23.316;2023-08-17T08:15:15;49.30;15.70
80560;DHT22;70065;42.700;23.316;2023-08-17T08:17:41;49.50;15.70
80560;DHT22;70065;42.700;23.316;2023-08-17T08:20:07;49.50;15.70
80560;DHT22;70065;42.700;23.316;2023-08-17T08:22:33;49.60;15.60
80560;DHT22;70065;42.700;23.316;2023-08-17T08:24:59;49.70;15.70
80560;DHT22;70065;42.700;23.316;2023-08-17T08:27:24;49.70;15.70
80560;DHT22;70065;42.700;23.316;2023-08-17T08:29:51;49.70;15.50
80560;DHT22;70065;42.700;23.316;2023-08-17T08:32:17;49.70;16.30
80560;DHT22;70065;42.700;23.316;2023-08-17T08:34:45;49.80;15.60
80560;DHT22;70065;42.700;23.316;2023-08-17T08:37:12;49.80;15.50
80560;DHT22;70065;42.700;23.316;2023-08-17T08:39:53;49.80;15.40
80560;DHT22;70065;42.700;23.316;2023-08-17T08:42:20;49.60;15.50
80560;DHT22;70065;42.700;23.316;2023-08-17T08:44:46;49.30;15.60
80560;DHT22;70065;42.700;23.316;2023-08-17T08:47:13;49.00;15.90
80560;DHT22;70065;42.700;23.316;2023-08-17T09:22:43;39.60;22.20
80560;DHT22;70065;42.700;23.316;2023-08-17T09:25:23;39.20;22.50
80560;DHT22;70065;42.700;23.316;2023-08-17T09:27:50;38.80;22.80
80560;DHT22;70065;42.700;23.316;2023-08-17T09:30:17;38.50;23.10
80560;DHT22;70065;42.700;23.316;2023-08-17T09:32:47;38.20;23.20
80560;DHT22;70065;42.700;23.316;2023-08-17T09:35:13;38.00;23.60
80560;DHT22;70065;42.700;23.316;2023-08-17T09:37:39;37.80;23.60
80560;DHT22;70065;42.700;23.316;2023-08-17T09:40:05;37.60;24.00
80560;DHT22;70065;42.700;23.316;2023-08-17T09:42:35;37.40;24.20
80560;DHT22;70065;42.700;23.316;2023-08-17T09:45:01;37.20;24.20
80560;DHT22;70065;42.700;23.316;2023-08-17T09:47:27;37.00;24.50
80560;DHT22;70065;42.700;23.316;2023-08-17T09:49:55;36.80;24.70
80560;DHT22;70065;42.700;23.316;2023-08-17T09:52:23;36.60;24.70
80560;DHT22;70065;42.700;23.316;2023-08-17T09:54:49;36.40;25.10
80560;DHT22;70065;42.700;23.316;2023-08-17T09:57:17;36.20;25.30
80560;DHT22;70065;42.700;23.316;2023-08-17T09:59:45;36.00;25.30
80560;DHT22;70065;42.700;23.316;2023-08-17T10:02:18;35.80;25.60
80560;DHT22;70065;42.700;23.316;2023-08-17T10:04:49;35.70;25.80
80560;DHT22;70065;42.700;23.316;2023-08-17T10:07:21;35.50;26.00
80560;DHT22;70065;42.700;23.316;2023-08-17T10:10:02;35.30;26.10
80560;DHT22;70065;42.700;23.316;2023-08-17T10:12:36;35.10;26.30
80560;DHT22;70065;42.700;23.316;2023-08-17T10:15:10;34.90;26.30
80560;DHT22;70065;42.700;23.316;2023-08-17T10:17:53;34.80;26.70
80560;DHT22;70065;42.700;23.316;2023-08-17T10:20:21;34.70;26.80
80560;DHT22;70065;42.700;23.316;2023-08-17T10:23:11;34.50;26.90
80560;DHT22;70065;42.700;23.316;2023-08-17T10:25:38;34.50;27.00
80560;DHT22;70065;42.700;23.316;2023-08-17T10:28:05;34.30;27.10
80560;DHT22;70065;42.700;23.316;2023-08-17T10:30:33;34.20;27.20
80560;DHT22;70065;42.700;23.316;2023-08-17T10:33:00;34.20;27.30
80560;DHT22;70065;42.700;23.316;2023-08-17T10:35:27;34.10;27.40
80560;DHT22;70065;42.700;23.316;2023-08-17T10:37:53;34.10;27.50
80560;DHT22;70065;42.700;23.316;2023-08-17T10:40:26;34.00;27.50
80560;DHT22;70065;42.700;23.316;2023-08-17T10:42:57;34.00;27.70
80560;DHT22;70065;42.700;23.316;2023-08-17T10:45:34;33.90;27.70
80560;DHT22;70065;42.700;23.316;2023-08-17T10:50:37;33.80;27.80
80560;DHT22;70065;42.700;23.316;2023-08-17T10:53:10;33.80;27.80
80560;DHT22;70065;42.700;23.316;2023-08-17T10:55:41;33.80;27.70
80560;DHT22;70065;42.700;23.316;2023-08-17T10:58:07;33.80;27.80
80560;DHT22;70065;42.700;23.316;2023-08-17T11:00:40;33.70;27.90
80560;DHT22;70065;42.700;23.316;2023-08-17T11:03:26;33.70;27.90
80560;DHT22;70065;42.700;23.316;2023-08-17T11:05:55;33.70;27.80
80560;DHT22;70065;42.700;23.316;2023-08-17T11:08:40;33.60;28.00
80560;DHT22;70065;42.700;23.316;2023-08-17T11:11:19;33.60;28.00
80560;DHT22;70065;42.700;23.316;2023-08-17T11:13:46;33.60;28.00
80560;DHT22;70065;42.700;23.316;2023-08-17T11:16:15;33.60;28.00
80560;DHT22;70065;42.700;23.316;2023-08-17T11:18:41;33.60;28.10
80560;DHT22;70065;42.700;23.316;2023-08-17T11:21:08;33.60;28.10
80560;DHT22;70065;42.700;23.316;2023-08-17T11:23:36;33.60;28.00
80560;DHT22;70065;42.700;23.316;2023-08-17T11:26:03;33.60;27.80
80560;DHT22;70065;42.700;23.316;2023-08-17T11:28:32;33.70;28.00
80560;DHT22;70065;42.700;23.316;2023-08-17T11:31:06;33.60;27.90
80560;DHT22;70065;42.700;23.316;2023-08-17T11:33:32;33.60;27.70
80560;DHT22;70065;42.700;23.316;2023-08-17T11:36:00;33.70;28.00
80560;DHT22;70065;42.700;23.316;2023-08-17T11:38:31;33.70;27.80
80560;DHT22;70065;42.700;23.316;2023-08-17T11:40:57;33.70;27.90
80560;DHT22;70065;42.700;23.316;2023-08-17T11:43:27;33.70;27.80
80560;DHT22;70065;42.700;23.316;2023-08-17T11:45:56;33.80;28.00
80560;DHT22;70065;42.700;23.316;2023-08-17T11:48:23;33.70;27.80
80560;DHT22;70065;42.700;23.316;2023-08-17T11:50:53;33.80;27.80
80560;DHT22;70065;42.700;23.316;2023-08-17T11:53:20;33.80;27.80
80560;DHT22;70065;42.700;23.316;2023-08-17T11:55:46;33.80;27.80
80560;DHT22;70065;42.700;23.316;2023-08-17T11:58:12;33.90;27.80
80560;DHT22;70065;42.700;23.316;2023-08-17T12:00:44;33.90;27.60
80560;DHT22;70065;42.700;23.316;2023-08-17T12:03:19;34.00;27.60
80560;DHT22;70065;42.700;23.316;2023-08-17T12:05:50;34.00;27.60
80560;DHT22;70065;42.700;23.316;2023-08-17T12:08:17;34.00;27.50
80560;DHT22;70065;42.700;23.316;2023-08-17T12:10:44;34.00;27.50
80560;DHT22;70065;42.700;23.316;2023-08-17T12:13:12;34.10;27.60
80560;DHT22;70065;42.700;23.316;2023-08-17T12:15:38;34.00;27.40
80560;DHT22;70065;42.700;23.316;2023-08-17T12:18:05;34.00;27.60
80560;DHT22;70065;42.700;23.316;2023-08-17T12:20:32;34.00;27.60
80560;DHT22;70065;42.700;23.316;2023-08-17T12:23:02;34.10;27.40
80560;DHT22;70065;42.700;23.316;2023-08-17T12:25:33;34.20;27.30
80560;DHT22;70065;42.700;23.316;2023-08-17T12:27:59;34.30;27.20
80560;DHT22;70065;42.700;23.316;2023-08-17T12:33:14;34.30;27.30
80560;DHT22;70065;42.700;23.316;2023-08-17T12:35:40;34.40;27.20
80560;DHT22;70065;42.700;23.316;2023-08-17T12:38:05;34.30;27.20
80560;DHT22;70065;42.700;23.316;2023-08-17T12:40:31;34.30;27.40
80560;DHT22;70065;42.700;23.316;2023-08-17T12:42:57;34.30;27.20
80560;DHT22;70065;42.700;23.316;2023-08-17T12:45:24;34.40;27.20
80560;DHT22;70065;42.700;23.316;2023-08-17T12:47:52;34.40;27.10
80560;DHT22;70065;42.700;23.316;2023-08-17T12:50:18;34.40;27.20
80560;DHT22;70065;42.700;23.316;2023-08-17T12:52:48;34.30;27.20
80560;DHT22;70065;42.700;23.316;2023-08-17T12:55:16;34.40;27.30
80560;DHT22;70065;42.700;23.316;2023-08-17T12:57:42;34.40;27.30
80560;DHT22;70065;42.700;23.316;2023-08-17T13:00:08;34.30;27.10
80560;DHT22;70065;42.700;23.316;2023-08-17T13:02:35;34.30;27.30
80560;DHT22;70065;42.700;23.316;2023-08-17T13:05:02;34.30;27.40
80560;DHT22;70065;42.700;23.316;2023-08-17T13:07:28;34.30;27.50
80560;DHT22;70065;42.700;23.316;2023-08-17T13:09:54;34.20;27.20
80560;DHT22;70065;42.700;23.316;2023-08-17T13:12:21;34.20;27.30
80560;DHT22;70065;42.700;23.316;2023-08-17T13:14:47;34.20;27.50
80560;DHT22;70065;42.700;23.316;2023-08-17T13:17:14;34.20;27.50
80560;DHT22;70065;42.700;23.316;2023-08-17T13:19:43;34.10;27.50
80560;DHT22;70065;42.700;23.316;2023-08-17T13:22:15;34.10;27.50
80560;DHT22;70065;42.700;23.316;2023-08-17T13:24:45;34.10;27.50
80560;DHT22;70065;42.700;23.316;2023-08-17T13:27:11;34.00;27.50
80560;DHT22;70065;42.700;23.316;2023-08-17T13:29:36;34.00;27.70
80560;DHT22;70065;42.700;23.316;2023-08-17T13:32:04;34.00;27.60
80560;DHT22;70065;42.700;23.316;2023-08-17T13:34:30;34.00;27.80
80560;DHT22;70065;42.700;23.316;2023-08-17T13:36:56;33.90;27.70
80560;DHT22;70065;42.700;23.316;2023-08-17T13:39:22;33.90;27.80
80560;DHT22;70065;42.700;23.316;2023-08-17T13:41:48;33.90;27.80
80560;DHT22;70065;42.700;23.316;2023-08-17T13:44:14;33.90;27.80
80560;DHT22;70065;42.700;23.316;2023-08-17T13:46:39;33.90;27.90
80560;DHT22;70065;42.700;23.316;2023-08-17T13:49:05;33.90;27.80
80560;DHT22;70065;42.700;23.316;2023-08-17T13:51:31;34.00;27.80
80560;DHT22;70065;42.700;23.316;2023-08-17T13:53:58;33.90;27.80
80560;DHT22;70065;42.700;23.316;2023-08-17T13:56:24;33.90;27.90
80560;DHT22;70065;42.700;23.316;2023-08-17T13:58:49;33.80;27.90
80560;DHT22;70065;42.700;23.316;2023-08-17T14:01:16;33.70;27.90
80560;DHT22;70065;42.700;23.316;2023-08-17T14:03:44;33.80;28.00
80560;DHT22;70065;42.700;23.316;2023-08-17T14:06:11;33.80;27.90
80560;DHT22;70065;42.700;23.316;2023-08-17T14:08:38;33.90;28.00
80560;DHT22;70065;42.700;23.316;2023-08-17T14:11:07;33.90;27.90
80560;DHT22;70065;42.700;23.316;2023-08-17T14:13:35;33.90;27.90
80560;DHT22;70065;42.700;23.316;2023-08-17T14:16:02;33.80;28.00
80560;DHT22;70065;42.700;23.316;2023-08-17T14:18:30;33.70;28.10
80560;DHT22;70065;42.700;23.316;2023-08-17T14:29:02;33.80;28.10
80560;DHT22;70065;42.700;23.316;2023-08-17T14:31:28;33.70;28.10
80560;DHT22;70065;42.700;23.316;2023-08-17T14:34:00;33.60;28.20
80560;DHT22;70065;42.700;23.316;2023-08-17T14:36:32;33.50;28.30
80560;DHT22;70065;42.700;23.316;2023-08-17T14:39:03;33.40;28.40
80560;DHT22;70065;42.700;23.316;2023-08-17T14:44:54;33.30;28.60
80560;DHT22;70065;42.700;23.316;2023-08-17T14:50:45;33.10;28.70
80560;DHT22;70065;42.700;23.316;2023-08-17T14:56:17;33.00;28.80
80560;DHT22;70065;42.700;23.316;2023-08-17T14:59:25;33.00;28.90
80560;DHT22;70065;42.700;23.316;2023-08-17T15:01:51;33.10;28.70
80560;DHT22;70065;42.700;23.316;2023-08-17T15:04:31;33.10;28.90
80560;DHT22;70065;42.700;23.316;2023-08-17T15:10:23;33.20;28.80
80560;DHT22;70065;42.700;23.316;2023-08-17T15:12:55;33.20;28.80
80560;DHT22;70065;42.700;23.316;2023-08-17T15:18:48;33.20;28.80
80560;DHT22;70065;42.700;23.316;2023-08-17T15:21:14;33.20;28.80
80560;DHT22;70065;42.700;23.316;2023-08-17T15:23:39;33.20;28.80
80560;DHT22;70065;42.700;23.316;2023-08-17T15:26:07;33.20;28.80
80560;DHT22;70065;42.700;23.316;2023-08-17T15:28:36;33.20;28.80
80560;DHT22;70065;42.700;23.316;2023-08-17T15:31:03;33.20;28.80
80560;DHT22;70065;42.700;23.316;2023-08-17T15:33:37;33.20;28.80
80560;DHT22;70065;42.700;23.316;2023-08-17T15:36:03;33.20;28.80
80560;DHT22;70065;42.700;23.316;2023-08-17T15:38:29;33.20;28.80
80560;DHT22;70065;42.700;23.316;2023-08-17T15:40:59;33.20;28.80
80560;DHT22;70065;42.700;23.316;2023-08-17T15:43:24;33.10;28.80
80560;DHT22;70065;42.700;23.316;2023-08-17T15:45:51;33.10;28.90
80560;DHT22;70065;42.700;23.316;2023-08-17T15:48:18;33.10;28.80
80560;DHT22;70065;42.700;23.316;2023-08-17T15:50:46;33.10;28.90
80560;DHT22;70065;42.700;23.316;2023-08-17T15:53:12;33.00;28.90
80560;DHT22;70065;42.700;23.316;2023-08-17T15:55:49;33.00;29.00
80560;DHT22;70065;42.700;23.316;2023-08-17T15:58:15;33.00;29.00
80560;DHT22;70065;42.700;23.316;2023-08-17T16:00:41;33.00;29.00
80560;DHT22;70065;42.700;23.316;2023-08-17T16:03:08;32.90;29.10
80560;DHT22;70065;42.700;23.316;2023-08-17T16:05:34;32.90;29.20
80560;DHT22;70065;42.700;23.316;2023-08-17T16:08:00;32.80;29.20
80560;DHT22;70065;42.700;23.316;2023-08-17T16:10:26;32.80;29.30
80560;DHT22;70065;42.700;23.316;2023-08-17T16:12:52;32.80;29.30
80560;DHT22;70065;42.700;23.316;2023-08-17T16:15:19;32.70;29.30
80560;DHT22;70065;42.700;23.316;2023-08-17T16:17:44;32.70;29.40
80560;DHT22;70065;42.700;23.316;2023-08-17T16:20:10;32.60;29.40
80560;DHT22;70065;42.700;23.316;2023-08-17T16:22:36;32.60;29.50